JBU517 KBOS-KJFK
Flight info
| Callsign | JBU517 |
|---|---|
| Flight time | N/A |
| Altitude | 22000 |
| Route | SSOXS7 SSOXS BUZRD SEY PARCH4 |
| Aircraft | A320/M-SDE3FGHIRWY/LB1 |
Departure
| Time | 2026-05-06 20:58 |
|---|---|
| Airport | Boston Logan International Airport (KBOS) |
Arrival
| Time | N/A |
|---|---|
| Airport | John F. Kennedy International Airport (KJFK) |
| Time | Latitude | Longitude | Altitude | Speed | Heading |
|---|---|---|---|---|---|
| 2026-05-06 20:31 | 42.36576 | -71.01389 | 31 ft | 0 kts | 296° |
| 2026-05-06 20:32 | 42.36575 | -71.01387 | 31 ft | 0 kts | 298° |
| 2026-05-06 20:48 | 42.36568 | -71.01371 | 31 ft | 3 kts | 298° |
| 2026-05-06 20:48 | 42.36560 | -71.01352 | 31 ft | 4 kts | 249° |
| 2026-05-06 20:48 | 42.36571 | -71.01324 | 29 ft | 4 kts | 266° |
| 2026-05-06 20:48 | 42.36567 | -71.01306 | 29 ft | 4 kts | 3° |
| 2026-05-06 20:49 | 42.36546 | -71.01317 | 29 ft | 2 kts | 25° |
| 2026-05-06 20:49 | 42.36545 | -71.01317 | 29 ft | 0 kts | 25° |
| 2026-05-06 20:51 | 42.36546 | -71.01317 | 29 ft | 0 kts | 25° |
| 2026-05-06 20:51 | 42.36551 | -71.01313 | 29 ft | 2 kts | 25° |
| 2026-05-06 20:52 | 42.36568 | -71.01302 | 28 ft | 4 kts | 24° |
| 2026-05-06 20:52 | 42.36597 | -71.01288 | 27 ft | 5 kts | 18° |
| 2026-05-06 20:52 | 42.36636 | -71.01271 | 27 ft | 7 kts | 18° |
| 2026-05-06 20:52 | 42.36686 | -71.01251 | 27 ft | 8 kts | 14° |
| 2026-05-06 20:53 | 42.36746 | -71.01242 | 25 ft | 9 kts | 353° |
| 2026-05-06 20:53 | 42.36806 | -71.01283 | 25 ft | 10 kts | 330° |
| 2026-05-06 20:53 | 42.36867 | -71.01247 | 29 ft | 11 kts | 40° |
| 2026-05-06 20:53 | 42.36928 | -71.01176 | 25 ft | 14 kts | 40° |
| 2026-05-06 20:54 | 42.37014 | -71.01092 | 28 ft | 16 kts | 27° |
| 2026-05-06 20:54 | 42.37115 | -71.01025 | 28 ft | 17 kts | 25° |
| 2026-05-06 20:54 | 42.37223 | -71.00957 | 27 ft | 17 kts | 25° |
| 2026-05-06 20:54 | 42.37257 | -71.00934 | 25 ft | 0 kts | 26° |
| 2026-05-06 20:55 | 42.37258 | -71.00934 | 28 ft | 1 kts | 26° |
| 2026-05-06 20:55 | 42.37275 | -71.00923 | 25 ft | 6 kts | 26° |
| 2026-05-06 20:55 | 42.37334 | -71.00890 | 26 ft | 12 kts | 20° |
| 2026-05-06 20:56 | 42.37436 | -71.00840 | 28 ft | 19 kts | 20° |
| 2026-05-06 20:56 | 42.37581 | -71.00769 | 26 ft | 25 kts | 20° |
| 2026-05-06 20:56 | 42.37749 | -71.00688 | 25 ft | 24 kts | 28° |
| 2026-05-06 20:56 | 42.37744 | -71.00528 | 25 ft | 16 kts | 137° |
| 2026-05-06 20:57 | 42.37695 | -71.00521 | 27 ft | 0 kts | 199° |
| 2026-05-06 20:57 | 42.37694 | -71.00522 | 27 ft | 1 kts | 199° |
| 2026-05-06 20:57 | 42.37629 | -71.00553 | 28 ft | 34 kts | 199° |
| 2026-05-06 20:57 | 42.37195 | -71.00759 | 28 ft | 95 kts | 200° |
| 2026-05-06 20:58 | 42.36416 | -71.01121 | 86 ft | 134 kts | 197° |
| 2026-05-06 20:58 | 42.35555 | -71.01530 | 686 ft | 131 kts | 200° |
| 2026-05-06 20:58 | 42.34655 | -71.01681 | 1208 ft | 135 kts | 176° |
| 2026-05-06 20:58 | 42.33714 | -71.01155 | 1523 ft | 166 kts | 148° |
| 2026-05-06 20:59 | 42.32878 | -70.99871 | 1792 ft | 195 kts | 139° |
| 2026-05-06 20:59 | 42.31989 | -70.98361 | 2255 ft | 211 kts | 139° |
| 2026-05-06 20:59 | 42.31298 | -70.96527 | 3121 ft | 231 kts | 114° |
| 2026-05-06 20:59 | 42.31287 | -70.94187 | 3575 ft | 270 kts | 85° |
| 2026-05-06 21:00 | 42.31666 | -70.91584 | 3963 ft | 295 kts | 83° |
| 2026-05-06 21:00 | 42.32079 | -70.88808 | 4664 ft | 306 kts | 84° |
| 2026-05-06 21:00 | 42.32502 | -70.85984 | 5413 ft | 314 kts | 85° |
| 2026-05-06 21:00 | 42.32893 | -70.83084 | 6312 ft | 312 kts | 91° |
| 2026-05-06 21:01 | 42.32885 | -70.80182 | 7106 ft | 307 kts | 107° |
| 2026-05-06 21:01 | 42.32394 | -70.77405 | 7907 ft | 301 kts | 120° |
| 2026-05-06 21:01 | 42.31549 | -70.74833 | 8727 ft | 301 kts | 126° |
| 2026-05-06 21:01 | 42.30626 | -70.72284 | 9537 ft | 301 kts | 131° |
| 2026-05-06 21:02 | 42.29404 | -70.70030 | 10245 ft | 294 kts | 144° |
| 2026-05-06 21:02 | 42.27863 | -70.68191 | 10589 ft | 301 kts | 156° |
| 2026-05-06 21:02 | 42.25984 | -70.66842 | 10793 ft | 312 kts | 168° |
| 2026-05-06 21:02 | 42.23888 | -70.65903 | 11261 ft | 323 kts | 171° |
| 2026-05-06 21:03 | 42.21730 | -70.64936 | 11947 ft | 330 kts | 170° |
| 2026-05-06 21:03 | 42.19532 | -70.63928 | 12707 ft | 337 kts | 170° |
| 2026-05-06 21:03 | 42.17295 | -70.62903 | 13468 ft | 341 kts | 172° |
| 2026-05-06 21:03 | 42.14990 | -70.62254 | 14140 ft | 336 kts | 182° |
| 2026-05-06 21:04 | 42.12668 | -70.62240 | 14779 ft | 331 kts | 193° |
| 2026-05-06 21:04 | 42.10428 | -70.62841 | 15355 ft | 327 kts | 203° |
| 2026-05-06 21:04 | 42.08256 | -70.63806 | 15895 ft | 330 kts | 204° |
| 2026-05-06 21:04 | 42.06093 | -70.64775 | 16437 ft | 333 kts | 204° |
| 2026-05-06 21:05 | 42.03876 | -70.65762 | 16992 ft | 337 kts | 204° |
| 2026-05-06 21:05 | 42.01635 | -70.66755 | 17548 ft | 341 kts | 204° |
| 2026-05-06 21:05 | 41.99368 | -70.67754 | 18125 ft | 345 kts | 204° |
| 2026-05-06 21:05 | 41.97074 | -70.68761 | 18612 ft | 348 kts | 204° |
| 2026-05-06 21:06 | 41.94759 | -70.69772 | 19162 ft | 351 kts | 204° |
| 2026-05-06 21:06 | 41.92424 | -70.70797 | 19706 ft | 354 kts | 204° |
| 2026-05-06 21:06 | 41.90071 | -70.71829 | 20238 ft | 357 kts | 204° |
| 2026-05-06 21:06 | 41.87692 | -70.72868 | 20763 ft | 360 kts | 204° |
| 2026-05-06 21:07 | 41.85296 | -70.73913 | 21271 ft | 364 kts | 204° |
| 2026-05-06 21:07 | 41.82958 | -70.75171 | 21733 ft | 362 kts | 212° |
| 2026-05-06 21:07 | 41.80760 | -70.76802 | 21857 ft | 363 kts | 214° |
| 2026-05-06 21:07 | 41.78534 | -70.78487 | 21854 ft | 368 kts | 214° |
| 2026-05-06 21:08 | 41.76301 | -70.80177 | 21886 ft | 370 kts | 214° |
| 2026-05-06 21:08 | 41.74051 | -70.81876 | 21891 ft | 370 kts | 214° |
| 2026-05-06 21:08 | 41.71834 | -70.83542 | 21885 ft | 371 kts | 214° |
| 2026-05-06 21:08 | 41.69580 | -70.85228 | 21889 ft | 371 kts | 214° |
| 2026-05-06 21:09 | 41.67333 | -70.86908 | 21884 ft | 371 kts | 214° |
| 2026-05-06 21:09 | 41.65078 | -70.88594 | 21910 ft | 371 kts | 214° |
| 2026-05-06 21:09 | 41.62823 | -70.90281 | 21887 ft | 371 kts | 214° |
| 2026-05-06 21:09 | 41.60568 | -70.91961 | 21871 ft | 371 kts | 214° |
| 2026-05-06 21:10 | 41.58318 | -70.93635 | 21874 ft | 371 kts | 214° |
| 2026-05-06 21:10 | 41.56080 | -70.95352 | 21874 ft | 369 kts | 218° |
| 2026-05-06 21:10 | 41.54082 | -70.97466 | 21878 ft | 364 kts | 227° |
| 2026-05-06 21:10 | 41.52411 | -70.99989 | 21880 ft | 362 kts | 233° |
| 2026-05-06 21:11 | 41.50825 | -71.02605 | 21882 ft | 362 kts | 233° |
| 2026-05-06 21:11 | 41.49229 | -71.05215 | 21887 ft | 363 kts | 233° |
| 2026-05-06 21:11 | 41.47623 | -71.07818 | 21896 ft | 363 kts | 233° |
| 2026-05-06 21:11 | 41.46033 | -71.10385 | 21898 ft | 363 kts | 233° |
| 2026-05-06 21:12 | 41.44430 | -71.12975 | 21885 ft | 363 kts | 233° |
| 2026-05-06 21:12 | 41.42823 | -71.15578 | 21874 ft | 363 kts | 233° |
| 2026-05-06 21:12 | 41.41221 | -71.18177 | 21874 ft | 363 kts | 233° |
| 2026-05-06 21:12 | 41.39614 | -71.20781 | 21878 ft | 363 kts | 233° |
| 2026-05-06 21:13 | 41.38010 | -71.23378 | 21876 ft | 363 kts | 233° |
| 2026-05-06 21:13 | 41.36405 | -71.25977 | 21879 ft | 363 kts | 233° |
| 2026-05-06 21:13 | 41.34798 | -71.28572 | 21877 ft | 363 kts | 233° |
| 2026-05-06 21:13 | 41.33193 | -71.31166 | 21881 ft | 363 kts | 233° |
| 2026-05-06 21:14 | 41.31587 | -71.33761 | 21879 ft | 363 kts | 233° |
| 2026-05-06 21:14 | 41.29979 | -71.36352 | 21876 ft | 363 kts | 233° |
| 2026-05-06 21:14 | 41.28373 | -71.38941 | 21877 ft | 363 kts | 233° |
| 2026-05-06 21:14 | 41.26768 | -71.41532 | 21879 ft | 363 kts | 233° |
| 2026-05-06 21:15 | 41.25159 | -71.44124 | 21877 ft | 363 kts | 233° |
| 2026-05-06 21:15 | 41.23547 | -71.46707 | 21879 ft | 363 kts | 233° |
| 2026-05-06 21:15 | 41.21932 | -71.49289 | 21873 ft | 363 kts | 233° |
| 2026-05-06 21:15 | 41.20316 | -71.51870 | 21877 ft | 363 kts | 233° |
| 2026-05-06 21:16 | 41.18703 | -71.54461 | 21882 ft | 363 kts | 234° |
| 2026-05-06 21:16 | 41.17357 | -71.57284 | 21894 ft | 361 kts | 245° |
| 2026-05-06 21:16 | 41.16468 | -71.60380 | 21897 ft | 360 kts | 255° |
| 2026-05-06 21:16 | 41.15997 | -71.63648 | 21893 ft | 360 kts | 260° |
| 2026-05-06 21:17 | 41.15607 | -71.66890 | 21896 ft | 360 kts | 259° |
| 2026-05-06 21:17 | 41.15205 | -71.70174 | 21893 ft | 361 kts | 259° |
| 2026-05-06 21:17 | 41.14799 | -71.73467 | 21895 ft | 361 kts | 259° |
| 2026-05-06 21:17 | 41.14391 | -71.76753 | 21874 ft | 361 kts | 259° |
| 2026-05-06 21:18 | 41.13981 | -71.80032 | 21883 ft | 360 kts | 259° |
| 2026-05-06 21:18 | 41.13570 | -71.83309 | 21887 ft | 360 kts | 259° |
| 2026-05-06 21:18 | 41.13157 | -71.86595 | 21896 ft | 360 kts | 259° |
| 2026-05-06 21:18 | 41.12743 | -71.89878 | 21897 ft | 360 kts | 259° |
| 2026-05-06 21:19 | 41.12332 | -71.93108 | 21921 ft | 360 kts | 260° |
| 2026-05-06 21:19 | 41.11915 | -71.96379 | 21917 ft | 359 kts | 260° |
| 2026-05-06 21:19 | 41.11498 | -71.99650 | 21917 ft | 359 kts | 260° |
| 2026-05-06 21:19 | 41.11083 | -72.02912 | 21918 ft | 359 kts | 260° |
| 2026-05-06 21:20 | 41.10668 | -72.06178 | 21912 ft | 358 kts | 260° |
| 2026-05-06 21:20 | 41.10395 | -72.08336 | 21913 ft | 358 kts | 260° |
| 2026-05-06 21:20 | 41.09768 | -72.12671 | 21900 ft | 358 kts | 254° |
| 2026-05-06 21:20 | 41.09000 | -72.15819 | 21898 ft | 358 kts | 252° |
| 2026-05-06 21:21 | 41.08222 | -72.18953 | 21895 ft | 358 kts | 252° |
| 2026-05-06 21:21 | 41.07445 | -72.22090 | 21894 ft | 358 kts | 252° |
| 2026-05-06 21:21 | 41.06672 | -72.25226 | 21896 ft | 358 kts | 252° |
| 2026-05-06 21:21 | 41.05906 | -72.28327 | 21912 ft | 358 kts | 253° |
| 2026-05-06 21:22 | 41.05129 | -72.31453 | 21904 ft | 357 kts | 253° |
| 2026-05-06 21:22 | 41.04349 | -72.34579 | 21905 ft | 357 kts | 252° |
| 2026-05-06 21:22 | 41.03567 | -72.37700 | 21880 ft | 357 kts | 253° |
| 2026-05-06 21:22 | 41.02787 | -72.40814 | 21883 ft | 356 kts | 253° |
| 2026-05-06 21:23 | 41.02009 | -72.43925 | 21882 ft | 356 kts | 253° |
| 2026-05-06 21:23 | 41.01235 | -72.47039 | 21886 ft | 356 kts | 253° |
| 2026-05-06 21:23 | 41.00459 | -72.50154 | 21887 ft | 356 kts | 253° |
| 2026-05-06 21:23 | 40.99682 | -72.53265 | 21889 ft | 356 kts | 253° |
| 2026-05-06 21:24 | 40.98902 | -72.56375 | 21887 ft | 356 kts | 253° |
| 2026-05-06 21:24 | 40.98120 | -72.59482 | 21883 ft | 356 kts | 252° |
| 2026-05-06 21:24 | 40.97334 | -72.62589 | 21917 ft | 355 kts | 253° |
| 2026-05-06 21:24 | 40.96552 | -72.65687 | 21912 ft | 355 kts | 253° |
| 2026-05-06 21:25 | 40.95770 | -72.68784 | 21908 ft | 354 kts | 253° |
| 2026-05-06 21:25 | 40.94990 | -72.71870 | 21904 ft | 351 kts | 253° |
| 2026-05-06 21:25 | 40.94231 | -72.74863 | 21830 ft | 337 kts | 253° |
| 2026-05-06 21:25 | 40.93393 | -72.77710 | 21561 ft | 330 kts | 245° |
| 2026-05-06 21:26 | 40.92130 | -72.80231 | 21142 ft | 330 kts | 233° |
| 2026-05-06 21:26 | 40.91062 | -72.81666 | 20834 ft | 333 kts | 226° |
| 2026-05-06 21:26 | 40.88567 | -72.84124 | 20145 ft | 334 kts | 221° |
| 2026-05-06 21:26 | 40.87323 | -72.85311 | 19820 ft | 333 kts | 221° |
| 2026-05-06 21:27 | 40.84844 | -72.87676 | 19200 ft | 330 kts | 221° |
| 2026-05-06 21:27 | 40.82997 | -72.89440 | 18670 ft | 324 kts | 220° |
| 2026-05-06 21:27 | 40.81770 | -72.90611 | 18118 ft | 321 kts | 220° |
| 2026-05-06 21:27 | 40.79966 | -72.92334 | 17202 ft | 318 kts | 220° |
| 2026-05-06 21:28 | 40.78189 | -72.94033 | 16336 ft | 313 kts | 220° |
| 2026-05-06 21:28 | 40.76437 | -72.95707 | 15529 ft | 309 kts | 220° |
| 2026-05-06 21:28 | 40.74713 | -72.97352 | 14734 ft | 304 kts | 220° |
| 2026-05-06 21:28 | 40.73011 | -72.98977 | 13966 ft | 299 kts | 220° |
| 2026-05-06 21:29 | 40.71417 | -73.00683 | 13137 ft | 291 kts | 230° |
| 2026-05-06 21:29 | 40.70371 | -73.02917 | 12328 ft | 285 kts | 249° |
| 2026-05-06 21:29 | 40.70030 | -73.05477 | 11514 ft | 287 kts | 268° |
| 2026-05-06 21:29 | 40.70459 | -73.08047 | 10949 ft | 298 kts | 287° |
| 2026-05-06 21:30 | 40.71397 | -73.10493 | 10501 ft | 299 kts | 290° |
| 2026-05-06 21:30 | 40.72352 | -73.12916 | 10083 ft | 297 kts | 290° |
| 2026-05-06 21:30 | 40.73289 | -73.15288 | 9971 ft | 285 kts | 290° |
| 2026-05-06 21:30 | 40.74181 | -73.17538 | 9980 ft | 269 kts | 290° |
| 2026-05-06 21:31 | 40.75030 | -73.19696 | 10005 ft | 262 kts | 290° |
| 2026-05-06 21:31 | 40.75861 | -73.21825 | 10000 ft | 261 kts | 289° |
| 2026-05-06 21:31 | 40.76685 | -73.23946 | 9897 ft | 259 kts | 289° |